createdAt,value
2018-12-11T00:01:57.488Z,40.20
2018-12-11T00:04:23.703Z,40.10
2018-12-11T00:06:49.927Z,40.10
2018-12-11T00:09:16.130Z,40.20
2018-12-11T00:11:42.642Z,40.00
2018-12-11T00:14:09.028Z,40.10
2018-12-11T00:16:35.246Z,40.00
2018-12-11T00:19:01.483Z,39.90
2018-12-11T00:21:27.683Z,40.00
2018-12-11T00:23:53.945Z,40.00
2018-12-11T00:26:21.821Z,40.60
2018-12-11T00:28:48.782Z,40.10
2018-12-11T00:31:15.732Z,40.10
2018-12-11T00:33:42.123Z,40.10
2018-12-11T00:36:08.315Z,40.00
2018-12-11T00:38:34.571Z,40.00
2018-12-11T00:41:00.802Z,40.00
2018-12-11T00:43:27.057Z,40.00
2018-12-11T00:45:53.315Z,40.00
2018-12-11T00:48:19.515Z,40.10
2018-12-11T00:50:45.735Z,40.00
2018-12-11T00:53:12.329Z,40.00
2018-12-11T00:55:38.595Z,40.00
2018-12-11T00:58:05.235Z,40.00
2018-12-11T01:00:32.288Z,40.10
2018-12-11T01:02:58.467Z,40.60
2018-12-11T01:05:24.715Z,40.10
2018-12-11T01:07:50.922Z,40.10
2018-12-11T01:10:17.183Z,40.10
2018-12-11T01:12:43.385Z,40.20
2018-12-11T01:15:09.635Z,40.10
2018-12-11T01:17:35.841Z,40.00
2018-12-11T01:20:02.090Z,40.10
2018-12-11T01:22:28.265Z,40.10
2018-12-11T01:24:55.391Z,39.90
2018-12-11T01:27:21.597Z,39.90
2018-12-11T01:29:47.862Z,40.00
2018-12-11T01:32:14.103Z,40.10
2018-12-11T01:34:40.499Z,40.10
2018-12-11T01:37:06.727Z,40.10
2018-12-11T01:39:33.711Z,40.10
2018-12-11T01:42:00.002Z,40.10
2018-12-11T01:44:27.714Z,40.10
2018-12-11T01:46:54.095Z,40.10
2018-12-11T01:49:20.327Z,40.10
2018-12-11T01:51:46.549Z,40.10
2018-12-11T01:54:13.023Z,40.10
2018-12-11T01:56:39.413Z,40.10
2018-12-11T01:59:05.602Z,40.20
2018-12-11T02:01:31.881Z,40.30
2018-12-11T02:03:58.104Z,40.20
2018-12-11T02:06:24.322Z,40.10
2018-12-11T02:08:51.888Z,40.30
2018-12-11T02:11:16.973Z,40.10
2018-12-11T02:13:43.212Z,40.00
2018-12-11T02:16:09.393Z,40.00
2018-12-11T02:18:35.677Z,40.10
2018-12-11T02:21:03.374Z,40.10
2018-12-11T02:23:29.811Z,40.10
2018-12-11T02:25:55.987Z,40.10
2018-12-11T02:28:22.212Z,40.20
2018-12-11T02:30:48.441Z,40.30
2018-12-11T02:33:14.663Z,40.30
2018-12-11T02:35:40.912Z,40.30
2018-12-11T02:38:08.815Z,40.30
2018-12-11T02:40:35.034Z,40.20
2018-12-11T02:43:01.228Z,40.30
2018-12-11T02:45:27.452Z,40.20
2018-12-11T02:47:53.695Z,40.20
2018-12-11T02:50:19.905Z,40.10
2018-12-11T02:52:46.083Z,40.20
2018-12-11T02:55:12.262Z,40.20
2018-12-11T02:57:38.611Z,40.10
2018-12-11T03:00:05.640Z,40.40
2018-12-11T03:02:31.936Z,40.40
2018-12-11T03:04:58.313Z,40.40
2018-12-11T03:07:24.512Z,40.30
2018-12-11T03:09:50.805Z,40.40
2018-12-11T03:12:16.994Z,40.30
2018-12-11T03:14:43.819Z,40.40
2018-12-11T03:17:10.046Z,40.50
2018-12-11T03:19:36.275Z,40.50
2018-12-11T03:22:02.539Z,40.40
2018-12-11T03:24:29.579Z,40.50
2018-12-11T03:26:55.781Z,40.50
2018-12-11T03:29:22.018Z,40.60
2018-12-11T03:31:48.484Z,40.50
2018-12-11T03:34:14.684Z,40.40
2018-12-11T03:36:45.679Z,40.30
2018-12-11T03:39:12.095Z,40.30
2018-12-11T03:41:38.480Z,40.30
2018-12-11T03:44:04.756Z,40.40
2018-12-11T03:46:31.167Z,40.50
2018-12-11T03:48:57.563Z,40.40
2018-12-11T03:51:23.810Z,40.40
2018-12-11T03:53:50.046Z,40.50
2018-12-11T03:56:16.300Z,40.40
2018-12-11T03:58:42.494Z,40.30
2018-12-11T04:01:08.763Z,40.30
2018-12-11T04:03:35.366Z,40.30
2018-12-11T04:06:01.579Z,40.30
2018-12-11T04:08:27.800Z,40.30
2018-12-11T04:10:54.561Z,40.30
2018-12-11T04:13:20.888Z,40.40
2018-12-11T04:15:47.094Z,40.50
2018-12-11T04:18:13.344Z,40.50
2018-12-11T04:20:39.611Z,40.50
2018-12-11T04:23:05.846Z,40.50
2018-12-11T04:25:32.226Z,40.40
2018-12-11T04:27:58.438Z,40.50
2018-12-11T04:30:24.684Z,40.50
2018-12-11T04:32:50.944Z,40.50
2018-12-11T04:35:17.335Z,40.50
2018-12-11T04:37:43.556Z,40.50
2018-12-11T04:40:09.841Z,40.40
2018-12-11T04:42:36.263Z,40.50
2018-12-11T04:45:03.717Z,40.40
2018-12-11T04:47:30.850Z,40.50
2018-12-11T04:49:57.175Z,40.50
2018-12-11T04:52:23.373Z,40.50
2018-12-11T04:54:49.623Z,40.50
2018-12-11T04:57:15.857Z,40.60
2018-12-11T04:59:42.907Z,40.60
2018-12-11T05:02:09.125Z,40.60
2018-12-11T05:04:35.403Z,40.70
2018-12-11T05:07:01.595Z,40.80
2018-12-11T05:09:27.833Z,40.80
2018-12-11T05:11:54.236Z,40.70
2018-12-11T05:14:20.974Z,40.80
2018-12-11T05:16:47.327Z,40.60
2018-12-11T05:19:13.579Z,40.60
2018-12-11T05:21:39.786Z,40.60
2018-12-11T05:24:06.198Z,40.60
2018-12-11T05:26:32.427Z,40.60
2018-12-11T05:28:58.676Z,40.60
2018-12-11T05:31:26.366Z,40.60
2018-12-11T05:33:52.735Z,40.60
2018-12-11T05:36:18.991Z,40.60
2018-12-11T05:38:45.206Z,40.50
2018-12-11T05:41:11.463Z,40.60
2018-12-11T05:43:37.681Z,40.50
2018-12-11T05:46:05.342Z,40.50
2018-12-11T05:48:30.206Z,40.60
2018-12-11T05:50:56.410Z,40.60
2018-12-11T05:53:22.579Z,40.60
2018-12-11T05:55:48.798Z,40.50
2018-12-11T05:58:16.671Z,40.60
2018-12-11T06:00:42.899Z,40.50
2018-12-11T06:03:09.137Z,40.60
2018-12-11T06:05:35.403Z,40.40
2018-12-11T06:08:01.793Z,40.50
2018-12-11T06:10:28.035Z,40.50
2018-12-11T06:12:54.441Z,40.50
2018-12-11T06:15:20.672Z,40.60
2018-12-11T06:17:46.862Z,40.70
2018-12-11T06:20:13.179Z,40.60
2018-12-11T06:22:39.558Z,40.60
2018-12-11T06:25:05.803Z,40.60
2018-12-11T06:27:31.978Z,40.60
2018-12-11T06:29:58.255Z,40.50
2018-12-11T06:32:24.484Z,40.50
2018-12-11T06:34:50.753Z,40.50
2018-12-11T06:37:16.924Z,40.50
2018-12-11T06:39:43.160Z,40.50
2018-12-11T06:42:09.393Z,40.60
2018-12-11T06:44:35.666Z,40.50
2018-12-11T06:47:02.033Z,40.40
2018-12-11T06:49:28.326Z,40.60
2018-12-11T06:51:54.720Z,40.60
2018-12-11T06:54:20.991Z,40.70
2018-12-11T06:56:47.225Z,40.60
2018-12-11T06:59:13.589Z,40.50
2018-12-11T07:01:39.831Z,40.60
2018-12-11T07:04:06.007Z,40.60
2018-12-11T07:06:32.187Z,40.50
2018-12-11T07:08:58.512Z,40.60
2018-12-11T07:11:26.206Z,40.60
2018-12-11T07:13:52.403Z,40.60
2018-12-11T07:16:18.642Z,40.60
2018-12-11T07:18:44.837Z,40.60
2018-12-11T07:21:11.104Z,40.70
2018-12-11T07:23:38.806Z,40.60
2018-12-11T07:26:05.230Z,40.60
2018-12-11T07:28:31.609Z,40.60
2018-12-11T07:30:57.835Z,40.60
2018-12-11T07:33:24.013Z,40.60
2018-12-11T07:35:50.969Z,40.70
2018-12-11T07:38:17.335Z,40.50
2018-12-11T07:40:43.824Z,40.60
2018-12-11T07:43:10.019Z,40.70
2018-12-11T07:45:36.188Z,40.60
2018-12-11T07:48:02.451Z,40.50
2018-12-11T07:50:28.679Z,40.70
2018-12-11T07:52:54.911Z,40.70
2018-12-11T07:55:22.615Z,40.70
2018-12-11T07:57:49.031Z,40.70
2018-12-11T08:00:15.224Z,40.70
2018-12-11T08:02:41.479Z,40.70
2018-12-11T08:05:07.698Z,40.70
2018-12-11T08:07:33.971Z,40.70
2018-12-11T08:10:01.199Z,40.70
2018-12-11T08:12:27.386Z,40.90
2018-12-11T08:14:53.654Z,40.90
2018-12-11T08:17:20.068Z,40.80
2018-12-11T08:19:46.299Z,40.80
2018-12-11T08:22:12.531Z,40.70
2018-12-11T08:24:38.747Z,40.70
2018-12-11T08:27:04.977Z,40.70
2018-12-11T08:29:31.220Z,40.70
2018-12-11T08:31:57.412Z,40.80
2018-12-11T08:34:24.113Z,40.90
2018-12-11T08:36:50.528Z,41.00
2018-12-11T08:39:16.748Z,41.00
2018-12-11T08:41:43.679Z,40.90
2018-12-11T08:44:10.000Z,40.90
2018-12-11T08:46:36.228Z,40.80
2018-12-11T08:49:02.450Z,40.60
2018-12-11T08:51:28.704Z,40.70
2018-12-11T08:53:54.874Z,40.70
2018-12-11T08:56:21.151Z,40.60
2018-12-11T08:58:47.393Z,40.60
2018-12-11T09:01:13.615Z,40.70
2018-12-11T09:03:39.796Z,40.70
2018-12-11T09:06:06.079Z,40.80
2018-12-11T09:08:32.297Z,40.70
2018-12-11T09:10:58.514Z,40.70
2018-12-11T09:13:26.272Z,40.80
2018-12-11T09:15:52.861Z,40.70
2018-12-11T09:18:19.255Z,40.80
2018-12-11T09:20:47.159Z,40.70
2018-12-11T09:23:13.543Z,40.70
2018-12-11T09:25:39.766Z,40.90
2018-12-11T09:28:10.993Z,40.90
2018-12-11T09:30:32.428Z,40.90
2018-12-11T09:32:58.668Z,41.00
2018-12-11T09:35:26.395Z,41.00
2018-12-11T09:37:52.803Z,40.90
2018-12-11T09:40:24.479Z,40.90
2018-12-11T09:42:45.432Z,41.00
2018-12-11T09:45:11.915Z,41.00
2018-12-11T09:47:38.097Z,40.80
2018-12-11T09:50:04.531Z,40.90
2018-12-11T09:52:30.738Z,40.80
2018-12-11T09:54:56.967Z,41.00
2018-12-11T09:57:23.191Z,41.00
2018-12-11T09:59:49.427Z,41.00
2018-12-11T10:02:15.616Z,41.10
2018-12-11T10:04:41.883Z,41.10
2018-12-11T10:07:08.083Z,41.10
2018-12-11T10:09:35.178Z,41.10
2018-12-11T10:12:02.183Z,41.00
2018-12-11T10:14:28.464Z,40.90
2018-12-11T10:16:54.678Z,41.00
2018-12-11T10:19:20.892Z,40.90
2018-12-11T10:21:47.333Z,40.80
2018-12-11T10:24:13.518Z,40.90
2018-12-11T10:26:39.728Z,40.90
2018-12-11T10:29:05.997Z,40.80
2018-12-11T10:31:32.698Z,40.90
2018-12-11T10:33:59.121Z,40.90
2018-12-11T10:36:25.516Z,40.90
2018-12-11T10:38:51.704Z,41.00
2018-12-11T10:41:17.967Z,41.50
2018-12-11T10:43:44.443Z,40.80
2018-12-11T10:46:10.843Z,40.90
2018-12-11T10:48:38.708Z,40.90
2018-12-11T10:51:04.883Z,40.90
2018-12-11T10:53:31.189Z,41.00
2018-12-11T10:55:57.599Z,41.00
2018-12-11T10:58:24.042Z,41.00
2018-12-11T11:00:50.249Z,41.00
2018-12-11T11:03:16.460Z,41.00
2018-12-11T11:05:42.718Z,41.10
2018-12-11T11:08:09.750Z,41.20
2018-12-11T11:10:36.061Z,41.20
2018-12-11T11:13:02.419Z,41.20
2018-12-11T11:15:30.322Z,41.20
2018-12-11T11:17:57.708Z,41.10
2018-12-11T11:20:24.007Z,41.20
2018-12-11T11:22:50.388Z,41.20
2018-12-11T11:25:16.630Z,41.30
2018-12-11T11:27:42.849Z,41.30
2018-12-11T11:30:09.061Z,41.30
2018-12-11T11:32:35.265Z,41.30
2018-12-11T11:35:01.582Z,41.30
2018-12-11T11:37:28.157Z,41.30
2018-12-11T11:39:54.376Z,41.90
2018-12-11T11:42:20.672Z,41.30
2018-12-11T11:44:46.924Z,41.30
2018-12-11T11:47:13.108Z,41.20
2018-12-11T11:49:39.342Z,41.30
2018-12-11T11:52:05.739Z,41.40
2018-12-11T11:54:31.916Z,41.40
2018-12-11T11:56:58.215Z,41.30
2018-12-11T11:59:24.446Z,41.30
2018-12-11T12:01:50.654Z,41.40
2018-12-11T12:04:16.916Z,41.40
2018-12-11T12:06:43.368Z,41.40
2018-12-11T12:09:09.760Z,41.30
2018-12-11T12:11:35.974Z,41.30
2018-12-11T12:14:02.209Z,41.30
2018-12-11T12:16:29.920Z,41.30
2018-12-11T12:18:57.278Z,41.20
2018-12-11T12:21:22.742Z,41.20
2018-12-11T12:23:48.923Z,41.30
2018-12-11T12:26:15.200Z,41.30
2018-12-11T12:28:41.408Z,41.30
2018-12-11T12:31:07.900Z,41.30
2018-12-11T12:33:34.275Z,41.40
2018-12-11T12:36:00.509Z,41.30
2018-12-11T12:38:26.769Z,41.30
2018-12-11T12:40:52.959Z,41.40
2018-12-11T12:43:19.243Z,41.40
2018-12-11T12:45:45.628Z,41.30
2018-12-11T12:48:11.862Z,41.20
2018-12-11T12:50:38.291Z,41.30
2018-12-11T12:53:05.030Z,41.30
2018-12-11T12:55:32.401Z,41.40
2018-12-11T12:57:58.622Z,41.30
2018-12-11T13:00:24.850Z,41.30
2018-12-11T13:02:51.051Z,41.40
2018-12-11T13:05:17.308Z,41.40
2018-12-11T13:07:43.516Z,41.50
2018-12-11T13:10:09.756Z,41.50
2018-12-11T13:12:37.631Z,41.50
2018-12-11T13:15:07.328Z,41.60
2018-12-11T13:17:31.752Z,41.50
2018-12-11T13:19:58.155Z,41.70
2018-12-11T13:22:24.365Z,41.70
2018-12-11T13:24:50.563Z,41.70
2018-12-11T13:27:16.767Z,41.70
2018-12-11T13:29:43.879Z,41.80
2018-12-11T13:32:10.152Z,41.60
2018-12-11T13:34:36.539Z,41.70
2018-12-11T13:37:02.993Z,41.70
2018-12-11T13:39:29.212Z,41.70
2018-12-11T13:41:55.437Z,41.70
2018-12-11T13:44:21.667Z,41.70
2018-12-11T13:46:48.075Z,41.60
2018-12-11T13:49:14.387Z,41.60
2018-12-11T13:51:40.578Z,41.60
2018-12-11T13:54:06.772Z,41.70
2018-12-11T13:56:33.016Z,41.60
2018-12-11T13:58:59.865Z,41.50
2018-12-11T14:01:26.096Z,41.50
2018-12-11T14:03:52.310Z,41.50
2018-12-11T14:06:18.492Z,41.40
2018-12-11T14:08:44.765Z,41.50
2018-12-11T14:11:12.510Z,41.50
2018-12-11T14:13:38.861Z,41.40
2018-12-11T14:16:05.135Z,41.30
2018-12-11T14:18:31.516Z,41.40
2018-12-11T14:20:57.736Z,41.50
2018-12-11T14:23:23.957Z,41.50
2018-12-11T14:25:50.208Z,41.50
2018-12-11T14:28:16.432Z,41.50
2018-12-11T14:30:44.125Z,41.40
2018-12-11T14:33:10.315Z,41.40
2018-12-11T14:35:36.542Z,41.40
2018-12-11T14:38:02.845Z,41.30
2018-12-11T14:40:29.400Z,41.30
2018-12-11T14:42:55.640Z,41.30
2018-12-11T14:45:21.837Z,41.40
2018-12-11T14:47:48.109Z,41.30
2018-12-11T14:50:14.347Z,41.30
2018-12-11T14:52:40.554Z,41.90
2018-12-11T14:55:06.775Z,41.30
2018-12-11T14:57:33.056Z,41.30
2018-12-11T14:59:59.435Z,41.30
2018-12-11T15:02:25.676Z,41.30
2018-12-11T15:04:53.400Z,41.40
2018-12-11T15:07:19.807Z,41.40
2018-12-11T15:09:46.273Z,41.40
2018-12-11T15:12:12.619Z,41.40
2018-12-11T15:14:39.262Z,41.40
2018-12-11T15:17:05.498Z,41.30
2018-12-11T15:19:32.584Z,41.20
2018-12-11T15:21:59.001Z,41.30
2018-12-11T15:24:25.401Z,41.30
2018-12-11T15:26:51.680Z,41.40
2018-12-11T15:29:18.086Z,41.50
2018-12-11T15:31:44.270Z,41.60
2018-12-11T15:34:10.550Z,41.50
2018-12-11T15:36:36.751Z,41.60
2018-12-11T15:39:03.010Z,41.60
2018-12-11T15:41:29.201Z,41.60
2018-12-11T15:43:55.424Z,41.50
2018-12-11T15:46:21.675Z,41.50
2018-12-11T15:48:47.894Z,41.40
2018-12-11T15:51:14.135Z,41.40
2018-12-11T15:53:41.167Z,41.50
2018-12-11T15:56:07.412Z,41.40
2018-12-11T15:58:33.653Z,41.50
2018-12-11T16:00:59.901Z,41.40
2018-12-11T16:03:27.509Z,41.30
2018-12-11T16:05:53.731Z,41.40
2018-12-11T16:08:19.953Z,41.40
2018-12-11T16:10:46.166Z,41.40
2018-12-11T16:13:12.436Z,41.40
2018-12-11T16:15:38.653Z,41.40
2018-12-11T16:18:04.888Z,41.40
2018-12-11T16:20:31.113Z,41.30
2018-12-11T16:22:57.328Z,41.40
2018-12-11T16:25:23.816Z,41.40
2018-12-11T16:27:50.228Z,41.30
2018-12-11T16:30:16.427Z,41.30
2018-12-11T16:32:42.908Z,41.30
2018-12-11T16:35:09.337Z,41.20
2018-12-11T16:37:35.741Z,41.20
2018-12-11T16:40:04.796Z,41.20
2018-12-11T16:42:28.436Z,41.20
2018-12-11T16:44:55.864Z,41.20
2018-12-11T16:47:22.059Z,41.20
2018-12-11T16:49:48.286Z,41.20
2018-12-11T16:52:14.527Z,41.10
2018-12-11T16:54:40.768Z,41.10
2018-12-11T16:57:08.472Z,41.30
2018-12-11T16:59:34.860Z,41.20
2018-12-11T17:02:01.288Z,41.30
2018-12-11T17:04:27.537Z,41.30
2018-12-11T17:06:53.740Z,41.30
2018-12-11T17:09:20.174Z,41.30
2018-12-11T17:11:48.088Z,41.30
2018-12-11T17:14:14.471Z,41.30
2018-12-11T17:16:40.900Z,41.30
2018-12-11T17:19:07.154Z,41.20
2018-12-11T17:21:33.615Z,41.20
2018-12-11T17:24:00.000Z,41.30
2018-12-11T17:26:26.279Z,41.20
2018-12-11T17:28:52.659Z,41.20
2018-12-11T17:31:18.910Z,41.20
2018-12-11T17:33:46.620Z,41.30
2018-12-11T17:36:12.988Z,41.20
2018-12-11T17:38:39.206Z,41.30
2018-12-11T17:41:05.435Z,41.30
2018-12-11T17:43:32.699Z,41.30
2018-12-11T17:45:58.970Z,41.30
2018-12-11T17:48:25.185Z,41.30
2018-12-11T17:50:51.430Z,41.40
2018-12-11T17:53:17.628Z,41.30
2018-12-11T17:55:44.656Z,41.30
2018-12-11T17:58:10.892Z,41.30
2018-12-11T18:00:37.105Z,41.20
2018-12-11T18:03:03.335Z,41.30
2018-12-11T18:05:29.613Z,41.20
2018-12-11T18:07:55.816Z,41.90
2018-12-11T18:10:22.848Z,41.30
2018-12-11T18:12:50.724Z,41.30
2018-12-11T18:15:16.921Z,41.20
2018-12-11T18:17:43.172Z,41.30
2018-12-11T18:20:09.391Z,41.30
2018-12-11T18:22:35.616Z,41.30
2018-12-11T18:25:01.898Z,41.20
2018-12-11T18:27:28.084Z,41.10
2018-12-11T18:29:55.012Z,41.80
2018-12-11T18:32:25.046Z,41.20
2018-12-11T18:34:47.568Z,41.20
2018-12-11T18:37:13.855Z,41.20
2018-12-11T18:39:40.039Z,41.10
2018-12-11T18:42:07.916Z,41.20
2018-12-11T18:44:34.109Z,41.10
2018-12-11T18:47:00.353Z,41.20
2018-12-11T18:49:28.243Z,41.10
2018-12-11T18:51:54.471Z,41.10
2018-12-11T18:54:22.337Z,41.10
2018-12-11T18:56:48.556Z,41.10
2018-12-11T18:59:14.785Z,41.20
2018-12-11T19:01:41.586Z,41.10
2018-12-11T19:04:07.843Z,41.20
2018-12-11T19:06:34.080Z,41.30
2018-12-11T19:09:05.612Z,41.10
2018-12-11T19:11:26.783Z,41.20
2018-12-11T19:13:53.173Z,41.20
2018-12-11T19:16:19.398Z,41.20
2018-12-11T19:18:45.638Z,41.20
2018-12-11T19:21:13.383Z,41.20
2018-12-11T19:23:39.712Z,41.10
2018-12-11T19:26:05.895Z,41.10
2018-12-11T19:28:32.140Z,41.10
2018-12-11T19:30:58.451Z,41.10
2018-12-11T19:33:24.623Z,41.10
2018-12-11T19:35:50.828Z,41.10
2018-12-11T19:38:17.011Z,41.10
2018-12-11T19:40:44.082Z,41.10
2018-12-11T19:43:09.756Z,41.10
2018-12-11T19:45:36.021Z,41.10
2018-12-11T19:48:02.412Z,41.10
2018-12-11T19:50:28.628Z,41.10
2018-12-11T19:52:54.879Z,41.10
2018-12-11T19:55:21.101Z,41.10
2018-12-11T19:57:48.970Z,41.20
2018-12-11T20:00:16.664Z,41.20
2018-12-11T20:02:42.863Z,41.10
2018-12-11T20:05:09.902Z,41.10
2018-12-11T20:07:36.135Z,41.10
2018-12-11T20:10:03.844Z,41.10
2018-12-11T20:12:30.254Z,41.10
2018-12-11T20:14:56.655Z,41.10
2018-12-11T20:17:23.729Z,41.00
2018-12-11T20:19:49.895Z,41.10
2018-12-11T20:22:16.184Z,41.10
2018-12-11T20:24:42.380Z,41.10
2018-12-11T20:27:08.553Z,41.10
2018-12-11T20:29:35.706Z,41.10
2018-12-11T20:32:02.124Z,41.00
2018-12-11T20:34:28.338Z,41.00
2018-12-11T20:36:55.366Z,41.00
2018-12-11T20:39:21.553Z,41.00
2018-12-11T20:41:49.291Z,40.90
2018-12-11T20:44:15.706Z,40.80
2018-12-11T20:46:41.977Z,40.90
2018-12-11T20:49:08.352Z,40.90
2018-12-11T20:51:36.248Z,40.80
2018-12-11T20:54:02.665Z,40.80
2018-12-11T20:56:30.360Z,40.80
2018-12-11T20:58:56.763Z,40.70
2018-12-11T21:01:24.464Z,40.70
2018-12-11T21:03:50.840Z,40.70
2018-12-11T21:06:17.278Z,40.70
2018-12-11T21:08:43.527Z,40.70
2018-12-11T21:11:09.931Z,40.70
2018-12-11T21:13:36.149Z,40.60
2018-12-11T21:16:02.388Z,40.60
2018-12-11T21:18:30.263Z,40.70
2018-12-11T21:20:56.475Z,40.60
2018-12-11T21:23:22.759Z,40.60
2018-12-11T21:25:49.195Z,40.50
2018-12-11T21:28:15.581Z,40.60
2018-12-11T21:30:41.816Z,40.60
2018-12-11T21:33:08.044Z,40.70
2018-12-11T21:35:35.896Z,40.70
2018-12-11T21:38:02.511Z,40.60
2018-12-11T21:40:28.757Z,40.60
2018-12-11T21:42:55.000Z,40.60
2018-12-11T21:45:21.223Z,40.60
2018-12-11T21:47:47.437Z,40.50
2018-12-11T21:50:13.732Z,40.50
2018-12-11T21:52:40.131Z,40.50
2018-12-11T21:55:07.163Z,40.50
2018-12-11T21:57:33.971Z,40.50
2018-12-11T21:59:59.828Z,40.40
2018-12-11T22:02:26.028Z,40.40
2018-12-11T22:04:52.327Z,40.40
2018-12-11T22:07:18.727Z,40.40
2018-12-11T22:09:44.916Z,40.30
2018-12-11T22:12:11.165Z,40.30
2018-12-11T22:14:37.375Z,40.40
2018-12-11T22:17:03.625Z,40.40
2018-12-11T22:19:30.065Z,40.30
2018-12-11T22:21:56.317Z,40.30
2018-12-11T22:24:22.703Z,40.30
2018-12-11T22:26:48.908Z,40.30
2018-12-11T22:29:15.183Z,40.30
2018-12-11T22:31:41.404Z,40.20
2018-12-11T22:34:07.595Z,40.20
2018-12-11T22:36:33.908Z,40.20
2018-12-11T22:39:00.103Z,40.80
2018-12-11T22:41:26.321Z,40.20
2018-12-11T22:43:54.182Z,40.20
2018-12-11T22:46:20.387Z,40.10
2018-12-11T22:48:46.593Z,40.10
2018-12-11T22:51:12.860Z,40.10
2018-12-11T22:53:39.082Z,40.10
2018-12-11T22:56:05.314Z,40.10
2018-12-11T22:58:31.544Z,40.10
2018-12-11T23:00:57.800Z,40.10
2018-12-11T23:03:24.001Z,40.00
2018-12-11T23:05:50.278Z,40.00
2018-12-11T23:08:16.663Z,40.00
2018-12-11T23:10:42.891Z,40.10
2018-12-11T23:13:09.117Z,40.00
2018-12-11T23:15:36.801Z,40.00
2018-12-11T23:18:03.219Z,40.00
2018-12-11T23:20:30.948Z,40.00
2018-12-11T23:22:57.309Z,40.00
2018-12-11T23:25:23.520Z,40.00
2018-12-11T23:27:49.805Z,39.90
2018-12-11T23:30:16.030Z,40.00
2018-12-11T23:32:42.270Z,39.90
2018-12-11T23:35:09.465Z,39.90
2018-12-11T23:37:35.727Z,40.00
2018-12-11T23:40:02.132Z,39.90
2018-12-11T23:42:28.384Z,39.90
2018-12-11T23:44:54.588Z,39.90
2018-12-11T23:47:20.870Z,39.90
2018-12-11T23:49:47.079Z,39.90
2018-12-11T23:52:13.517Z,39.90
2018-12-11T23:54:39.905Z,39.90
2018-12-11T23:57:06.131Z,39.80
2018-12-11T23:59:32.645Z,39.90
